Latest Coastal Weather Observations for Darwin

IDD60701

Issued at 5:05 am CST Friday 1 August 2014 (issued every 10 minutes, with the page automatically refreshed every 10 minutes)

About coastal observations | Map of coastal stations | Coastal observations for NT | Marine services | Other Formats
Station Details ID: 014015 Name: DARWIN AIRPORT Lat: -12.42 Lon: 130.89 Height: 30.4 m
Data from the previous 72 hours. | See also: Recent months at Darwin
Date/Time
CST
Temp

°C
Wind Pressure Rain
since 9am
mm
Weather Cloud Vis
km
Sea
Height
m
Swell
Dir
 
Speed
knots
Gust
knots
hPa Trend Height
m
Period
s
Dir
01/05:00am 20.8 SSW 4 5 1014.0 - 0.0 - Mostly clear 10 - - - -
01/04:30am 21.1 SSW 4 4 1013.7 - 0.0 - - 10 - - - -
01/04:00am 21.3 SSW 5 6 1013.8 - 0.0 - - 10 - - - -
01/03:30am 20.9 SSW 4 5 1013.7 - 0.0 - - 10 - - - -
01/03:00am 21.2 SSW 3 4 1013.5 R 0.0 Fine Mostly clear 30 - - - -
01/02:30am 21.3 SSW 2 4 1013.8 - 0.0 - Mostly clear 10 - - - -
01/02:00am 21.5 SSW 4 4 1014.0 - 0.0 - Mostly clear 10 - - - -
01/01:30am 21.4 SSW 4 5 1014.1 - 0.0 - Mostly clear 10 - - - -
01/01:00am 21.5 CALM 0 0 1014.2 - 0.0 - Mostly clear 10 - - - -
01/12:30am 21.6 CALM 0 0 1014.2 - 0.0 - - 10 - - - -
01/12:00am 21.9 SSW 2 3 1013.7 R 0.0 Fine Mostly clear 30 - - - -
 
Date/Time
CST
Temp

°C
Wind Pressure Rain
since 9am
mm
Weather Cloud Vis
km
Sea
Height
m
Swell
Dir
 
Speed
knots
Gust
knots
hPa Trend Height
m
Period
s
Dir
31/11:30pm 22.0 CALM 0 0 1014.0 - 0.0 - - 10 - - - -
31/11:00pm 22.8 SSW 3 5 1013.9 - 0.0 - - 10 - - - -
31/10:30pm 22.3 CALM 0 0 1013.8 - 0.0 - - 10 - - - -
31/10:00pm 23.0 CALM 0 0 1013.5 - 0.0 - - 10 - - - -
31/09:30pm 23.9 SSE 2 4 1013.3 - 0.0 - - 10 - - - -
31/09:00pm 24.4 SE 4 5 1012.7 F 0.0 Smoke Partly cloudy 30 - - - -
31/08:30pm 24.9 E 4 5 1012.8 - 0.0 - - 10 - - - -
31/08:00pm 25.5 NNE 5 7 1012.3 - 0.0 - - 10 - - - -
31/07:30pm 26.0 NNE 7 9 1012.1 - 0.0 - - 10 - - - -
31/07:00pm 26.4 NNE 9 13 1011.9 - 0.0 - - 10 - - - -
31/06:30pm 26.9 N 10 13 1011.9 - 0.0 - - 10 - - - -
31/06:00pm 27.8 N 9 12 1011.4 S 0.0 Smoke Mostly clear 30 - - - -
31/05:30pm 28.7 N 11 11 1011.5 - 0.0 - - 10 - - - -
31/05:00pm 29.5 N 10 13 1011.4 - 0.0 - - 10 - - - -
31/04:30pm 29.2 N 13 16 1011.4 - 0.0 - - 10 - - - -
31/04:00pm 30.4 N 11 14 1011.3 - 0.0 - - 10 - - - -
31/03:30pm 29.9 N 13 14 1011.3 - 0.0 - - 10 - - - -
31/03:00pm 30.6 NW 13 16 1011.5 F 0.0 Smoke Mostly clear 25 - - - -
31/02:30pm 32.7 WNW 10 15 1012.3 - 0.0 - - 10 - - - -
31/02:00pm 32.3 WSW 6 12 1012.9 - 0.0 - Mostly clear 10 - - - -
31/01:30pm 31.7 E 8 14 1013.5 - 0.0 - - 10 - - - -
31/01:00pm 30.5 ESE 7 11 1014.0 - 0.0 - - 10 - - - -
31/12:30pm 30.8 E 10 17 1014.3 - 0.0 - Mostly clear 10 - - - -
31/12:00pm 30.1 E 9 14 1014.8 F 0.0 Fine Mostly clear 30 - - - -
31/11:30am 29.0 ENE 12 15 1015.5 - 0.0 - Mostly clear 10 - - - -
31/11:00am 28.2 E 11 16 1015.8 - 0.0 - Mostly clear 10 - - - -
31/10:30am 27.3 E 10 14 1016.1 - 0.0 - Mostly clear 10 - - - -
31/10:00am 27.2 ENE 8 14 1016.3 - 0.0 - Mostly clear 10 - - - -
31/09:30am 27.0 ENE 7 12 1016.2 - 0.0 - Mostly clear 10 - - - -
31/09:00am 25.9 ENE 6 8 1015.8 F 0.0 Fine Partly cloudy 30 - - - -
31/08:30am 24.8 E 5 6 1015.8 - 0.0 - Mostly clear 10 - - - -
31/08:00am 23.4 E 5 6 1015.7 - 0.0 - Mostly clear 10 - - - -
31/07:30am 21.2 E 5 6 1015.6 - 0.0 - Mostly clear 10 - - - -
31/07:00am 21.1 ENE 4 4 1015.2 - 0.0 - - 10 - - - -
31/06:30am 21.3 E 4 5 1015.1 - 0.0 - - 10 - - - -
31/06:00am 21.5 E 5 6 1014.7 F 0.0 Fine Mostly clear 30 - - - -
31/05:30am 22.1 E 4 5 1014.9 - 0.0 - Partly cloudy 10 - - - -
31/05:00am 22.3 CALM 0 0 1014.8 - 0.0 - Mostly cloudy 10 - - - -
31/04:30am 23.3 SSE 3 4 1014.6 - 0.0 - Partly cloudy 10 - - - -
31/04:00am 23.4 SSE 4 5 1014.6 - 0.0 - Mostly cloudy 10 - - - -
31/03:30am 21.7 E 5 5 1014.6 - 0.0 - Mostly cloudy 10 - - - -
31/03:00am 21.2 ESE 4 4 1014.6 R 0.0 Smoke Mostly clear 30 - - - -
31/02:30am 21.9 SE 5 6 1014.9 - 0.0 - - 10 - - - -
31/02:00am 21.9 SSE 5 6 1014.8 - 0.0 - - 10 - - - -
31/01:30am 23.4 S 5 6 1015.0 - 0.0 - - 10 - - - -
31/01:00am 22.2 CALM 0 0 1015.0 - 0.0 - - 10 - - - -
31/12:30am 22.3 SE 2 4 1015.1 - 0.0 - - 10 - - - -
31/12:00am 22.4 S 4 5 1014.8 R 0.0 Smoke Mostly clear 30 - - - -
 
Date/Time
CST
Temp

°C
Wind Pressure Rain
since 9am
mm
Weather Cloud Vis
km
Sea
Height
m
Swell
Dir
 
Speed
knots
Gust
knots
hPa Trend Height
m
Period
s
Dir
30/11:30pm 22.5 S 4 4 1014.9 - 0.0 - - 10 - - - -
30/11:00pm 24.2 S 4 5 1014.9 - 0.0 - - 10 - - - -
30/10:30pm 23.8 S 3 5 1014.9 - 0.0 - - 10 - - - -
30/10:00pm 24.2 S 3 4 1014.7 - 0.0 - - 10 - - - -
30/09:30pm 24.1 ESE 3 4 1014.5 - 0.0 - - 10 - - - -
30/09:00pm 24.5 E 4 5 1014.1 R 0.0 Fine Mostly clear 30 - - - -
30/08:30pm 25.1 NE 5 7 1014.2 - 0.0 - - 10 - - - -
30/08:00pm 25.4 NNE 9 14 1013.6 - 0.0 - - 10 - - - -
30/07:30pm 26.0 NE 11 14 1013.2 - 0.0 - - 10 - - - -
30/07:00pm 26.6 NE 11 14 1012.9 - 0.0 - - 10 - - - -
30/06:30pm 27.3 NNE 13 17 1012.6 - 0.0 - - 10 - - - -
30/06:00pm 28.2 NNE 15 19 1012.2 R 0.0 Smoke Clear 30 - - - -
30/05:30pm 28.8 NNE 16 22 1012.0 - 0.0 - - 10 - - - -
30/05:00pm 29.6 NNE 16 20 1011.9 - 0.0 - - 10 - - - -
30/04:30pm 30.1 NNE 14 18 1011.6 - 0.0 - - 10 - - - -
30/04:00pm 30.5 N 13 17 1011.7 - 0.0 - - 10 - - - -
30/03:30pm 33.1 NNE 9 13 1011.8 - 0.0 - - 10 - - - -
30/03:00pm 32.5 ESE 14 20 1011.9 F 0.0 Smoke Mostly clear 25 - - - -
30/02:30pm 32.5 E 13 17 1012.6 - 0.0 - - 10 - - - -
30/02:00pm 32.3 ESE 15 23 1013.2 - 0.0 - - 10 - - - -
30/01:30pm 32.1 E 17 21 1013.6 - 0.0 - - 10 - - - -
30/01:00pm 31.7 E 15 21 1014.0 - 0.0 - Mostly clear 10 - - - -
30/12:30pm 31.1 E 16 23 1014.5 - 0.0 - Mostly clear 10 - - - -
30/12:00pm 30.4 SE 14 18 1014.9 F 0.0 Haze Mostly clear 25 - - - -
30/11:30am 30.0 E 16 20 1015.7 - 0.0 - - 10 - - - -
30/11:00am 29.4 ESE 16 21 1016.2 - 0.0 - - 10 - - - -
30/10:30am 28.7 E 15 19 1016.4 - 0.0 - - 10 - - - -
30/10:00am 28.2 E 14 17 1016.5 - 0.0 - - 10 - - - -
30/09:30am 26.8 ESE 10 15 1016.5 - 0.0 - - 10 - - - -
30/09:00am 24.8 SE 7 9 1016.4 R 0.0 Haze Mostly clear 25 - - - -
30/08:30am 23.3 SE 6 8 1016.5 - 0.0 - - 10 - - - -
30/08:00am 22.3 SE 7 8 1016.3 - 0.0 - - 10 - - - -
30/07:30am 21.3 SE 6 7 1015.8 - 0.0 - - 10 - - - -
30/07:00am 19.9 ESE 6 7 1015.5 - 0.0 Shallow fog Mostly clear 10 - - - -
30/06:33am 20.0 SE 4 5 1015.2 - 0.0 - - 10 - - - -
30/06:30am 20.0 SE 5 5 1015.2 - 0.0 - - 10 - - - -
30/06:00am 20.2 SE 3 3 1014.8 F 0.0 Haze Clear 16 - - - -
30/05:30am 20.5 SE 3 4 1014.9 - 0.0 - - 10 - - - -
30/05:00am 20.7 SSE 4 4 1014.9 - 0.0 - - 10 - - - -
30/04:30am 21.1 SSE 3 4 1014.8 - 0.0 - - 10 - - - -
30/04:00am 21.6 S 4 4 1014.6 - 0.0 - - 10 - - - -
30/03:30am 22.3 S 4 5 1014.7 - 0.0 - - 10 - - - -
30/03:00am 22.1 SE 4 5 1014.6 R 0.0 Haze Clear 14 - - - -
30/02:30am 22.6 ESE 4 4 1014.9 - 0.0 - - 10 - - - -
30/02:00am 21.9 E 5 6 1014.8 - 0.0 - - 10 - - - -
30/01:30am 22.7 E 5 6 1015.0 - 0.0 - - 10 - - - -
30/01:00am 23.2 E 5 6 1015.2 - 0.0 - - 10 - - - -
30/12:30am 23.6 E 6 7 1015.3 - 0.0 - - 10 - - - -
30/12:00am 23.7 E 6 8 1015.0 S 0.0 Smoke Clear 25 - - - -
 
Date/Time
CST
Temp

°C
Wind Pressure Rain
since 9am
mm
Weather Cloud Vis
km
Sea
Height
m
Swell
Dir
 
Speed
knots
Gust
knots
hPa Trend Height
m
Period
s
Dir
29/11:30pm 24.0 NE 8 9 1015.2 - 0.0 - - 10 - - - -
29/11:00pm 24.0 NE 8 10 1015.1 - 0.0 - - 10 - - - -
29/10:30pm 24.3 NE 7 9 1015.1 - 0.0 - - 10 - - - -
29/10:00pm 24.5 NE 7 8 1014.9 - 0.0 - - 10 - - - -
29/09:30pm 24.5 NE 8 10 1014.9 - 0.0 - - 10 - - - -
29/09:00pm 24.9 NE 8 10 1014.5 R 0.0 Haze Clear 20 - - - -
29/08:30pm 25.3 NE 10 13 1014.5 - 0.0 - - 10 - - - -
29/08:00pm 25.6 NNE 9 12 1014.2 - 0.0 - - 10 - - - -
29/07:30pm 26.1 NNE 9 11 1013.8 - 0.0 - - 10 - - - -
29/07:00pm 26.6 NNE 9 11 1013.3 - 0.0 - - 10 - - - -
29/06:30pm 27.3 NNE 11 14 1013.0 - 0.0 - - 10 - - - -
29/06:00pm 28.4 NNE 13 16 1012.7 R 0.0 Smoke Clear 30 - - - -
29/05:30pm 29.1 NNE 13 18 1012.5 - 0.0 - - 10 - - - -
29/05:00pm 30.0 NNE 15 20 1012.3 - 0.0 - - 10 - - - -
29/04:30pm 32.2 NNE 10 13 1012.2 - 0.0 - Mostly clear 8 - - - -
29/04:14pm 32.2 E 16 21 1012.0 - 0.0 - - 10 - - - -
29/04:00pm 32.5 E 16 21 1012.0 - 0.0 - - 10 - - - -
29/03:30pm 32.8 E 14 19 1012.1 - 0.0 - - 10 - - - -
29/03:00pm 33.1 ENE 16 21 1012.3 F 0.0 Smoke Mostly clear 30 - - - -
29/02:30pm 32.5 E 16 20 1012.8 - 0.0 - - 10 - - - -
29/02:06pm 32.2 E 18 29 1013.2 - 0.0 - - 10 - - - -
29/02:00pm 32.6 E 19 26 1013.3 - 0.0 - - 10 - - - -
29/01:30pm 32.4 ESE 18 26 1013.7 - 0.0 - - 10 - - - -
29/01:00pm 31.1 ESE 13 21 1014.4 - 0.0 - Mostly clear 10 - - - -
29/12:54pm 31.0 ESE 17 21 1014.4 - 0.0 - Mostly clear 10 - - - -
29/12:45pm 30.7 ENE 21 25 1014.6 - 0.0 - Mostly clear 10 - - - -
29/12:30pm 30.6 E 19 27 1015.0 - 0.0 - Mostly clear 10 - - - -
29/12:00pm 30.4 E 17 24 1015.3 F 0.0 Smoke Mostly clear 30 - - - -
29/11:30am 29.9 E 17 25 1015.9 - 0.0 - Mostly clear 10 - - - -
29/11:00am 29.5 E 17 20 1016.3 - 0.0 - - 10 - - - -
29/10:30am 28.8 E 16 21 1016.6 - 0.0 - - 10 - - - -
29/10:00am 27.5 E 14 19 1016.7 - 0.0 - - 10 - - - -
29/09:30am 26.6 E 11 14 1016.9 - 0.0 - - 10 - - - -
29/09:00am 25.5 E 8 10 1016.7 S 0.0 Haze Mostly clear 25 - - - -
29/08:30am 25.0 E 6 8 1016.7 - 0.0 - - 10 - - - -
29/08:00am 23.2 SE 5 6 1016.5 - 0.0 - - 10 - - - -
29/07:30am 21.9 SE 5 6 1016.3 - 0.0 - - 10 - - - -
29/07:00am 20.6 SE 5 6 1016.0 - 0.0 - - 10 - - - -
29/06:30am 20.4 SSE 5 6 1015.7 - 0.0 - - 10 - - - -
29/06:00am 21.1 S 5 6 1015.1 R 0.0 Fine Partly cloudy 30 - - - -
29/05:30am 20.5 SSE 3 4 1015.2 - 0.0 - - 10 - - - -

Other Formats:

Comma delimited format used in spreadsheet applications
http://www.bom.gov.au/fwo/IDD60701/IDD60701.94120.axf

JavaScript Object Notation format (JSON) in row-major order
http://www.bom.gov.au/fwo/IDD60701/IDD60701.94120.json